Time;durP1;ratioP1;P1;durP2;ratioP2;P2;SDS_P1;SDS_P2;PMS_P1;PMS_P2;Temp;Humidity;BMP_temperature;BMP_pressure;BME280_temperature;BME280_humidity;BME280_pressure;Samples;Min_cycle;Max_cycle;Signal;HPM_P1;HPM_P2
2021/11/29 00:00:23;;;;;;;6.20;5.30;;;-2.30;99.90;;;;;;7402310;19;20302;-80
2021/11/29 00:02:51;;;;;;;8.30;6.63;;;-2.30;99.90;;;;;;7398382;19;20337;-79
2021/11/29 00:05:19;;;;;;;6.03;5.43;;;-2.40;99.90;;;;;;7396699;19;20637;-80
2021/11/29 00:07:47;;;;;;;6.75;6.05;;;-2.50;99.90;;;;;;7394566;19;20293;-80
2021/11/29 00:10:14;;;;;;;6.03;5.53;;;-2.50;99.90;;;;;;7398372;19;20982;-80
2021/11/29 00:12:43;;;;;;;5.57;5.07;;;-2.50;99.90;;;;;;7380349;19;20351;-80
2021/11/29 00:15:11;;;;;;;4.80;4.40;;;-2.40;99.90;;;;;;7407868;19;20796;-79
2021/11/29 00:17:36;;;;;;;5.97;4.73;;;-2.20;99.90;;;;;;7402541;19;20871;-79
2021/11/29 00:20:04;;;;;;;5.32;4.85;;;-2.30;99.90;;;;;;7396297;19;20321;-81
2021/11/29 00:22:30;;;;;;;6.40;5.80;;;-2.20;99.90;;;;;;7399537;19;20330;-79
2021/11/29 00:24:57;;;;;;;5.82;5.22;;;-2.20;99.90;;;;;;7399433;19;20875;-82
2021/11/29 00:27:22;;;;;;;6.15;4.72;;;-2.10;99.90;;;;;;7398216;19;20432;-80
2021/11/29 00:29:48;;;;;;;4.97;4.47;;;-2.20;99.90;;;;;;7395208;19;20939;-82
2021/11/29 00:32:14;;;;;;;5.37;4.60;;;-2.10;99.90;;;;;;7397433;19;20658;-80
2021/11/29 00:34:40;;;;;;;5.65;5.00;;;-2.00;99.90;;;;;;7398347;19;20344;-80
2021/11/29 00:37:06;;;;;;;6.07;5.47;;;-2.10;99.90;;;;;;7398834;19;20336;-79
2021/11/29 00:39:33;;;;;;;5.85;5.32;;;-2.20;99.90;;;;;;7397092;19;20416;-80
2021/11/29 00:41:59;;;;;;;5.57;5.07;;;-2.30;99.90;;;;;;7396244;19;20404;-79
2021/11/29 00:44:26;;;;;;;6.53;5.90;;;-2.30;99.90;;;;;;7395217;19;20313;-80
2021/11/29 00:46:52;;;;;;;6.20;5.00;;;-2.30;99.90;;;;;;7397612;19;21238;-79
2021/11/29 00:49:18;;;;;;;5.43;5.00;;;-2.30;99.90;;;;;;7395591;19;20353;-79
2021/11/29 00:51:44;;;;;;;7.23;5.90;;;-2.20;99.90;;;;;;7397938;19;21380;-82
2021/11/29 00:54:09;;;;;;;5.07;4.63;;;-2.20;99.90;;;;;;7396965;19;20331;-79
2021/11/29 00:56:35;;;;;;;5.93;5.35;;;-2.20;99.90;;;;;;7398113;19;20882;-79
2021/11/29 00:59:01;;;;;;;5.57;4.97;;;-2.20;99.90;;;;;;7398383;19;20305;-80
2021/11/29 01:01:26;;;;;;;6.90;6.25;;;-2.20;99.90;;;;;;7398446;19;20340;-80
2021/11/29 01:03:52;;;;;;;5.45;4.95;;;-2.20;99.90;;;;;;7397153;19;21258;-80
2021/11/29 01:06:18;;;;;;;5.57;5.07;;;-2.20;99.90;;;;;;7399821;19;20381;-80
2021/11/29 01:08:43;;;;;;;5.20;4.50;;;-2.10;99.90;;;;;;7399598;19;20341;-80
2021/11/29 01:11:09;;;;;;;5.93;5.32;;;-2.00;99.90;;;;;;7402221;19;20389;-80
2021/11/29 01:13:35;;;;;;;6.90;6.13;;;-2.00;99.90;;;;;;7401145;19;20349;-81
2021/11/29 01:16:01;;;;;;;5.40;4.90;;;-1.90;99.90;;;;;;7401725;19;20344;-80
2021/11/29 01:18:27;;;;;;;4.82;4.43;;;-1.90;99.90;;;;;;7402593;19;20348;-79
2021/11/29 01:20:53;;;;;;;5.80;5.30;;;-1.80;99.90;;;;;;7401485;19;20325;-81
2021/11/29 01:23:19;;;;;;;5.85;5.30;;;-1.70;99.90;;;;;;7402703;19;20358;-80
2021/11/29 01:25:45;;;;;;;5.50;4.97;;;-1.70;99.90;;;;;;7403340;19;20436;-82
2021/11/29 01:28:11;;;;;;;6.20;5.60;;;-1.70;99.90;;;;;;7401334;19;20994;-78
2021/11/29 01:30:37;;;;;;;6.95;5.40;;;-1.70;99.90;;;;;;7401485;19;20407;-80
2021/11/29 01:33:03;;;;;;;6.73;5.93;;;-1.80;99.90;;;;;;7402349;19;20308;-80
2021/11/29 01:35:29;;;;;;;7.65;6.85;;;-1.90;99.90;;;;;;7397487;19;20789;-80
2021/11/29 01:37:55;;;;;;;6.93;6.23;;;-1.90;99.90;;;;;;7398848;19;20321;-79
2021/11/29 01:40:20;;;;;;;7.88;6.72;;;-1.80;99.90;;;;;;7399628;19;20353;-80
2021/11/29 01:43:05;;;;;;;7.18;6.03;;;-1.80;99.90;;;;;;7399996;19;20323;-80
2021/11/29 01:45:36;;;;;;;6.40;5.80;;;-1.80;99.90;;;;;;7296533;19;2006504;-80
2021/11/29 01:48:01;;;;;;;5.85;5.18;;;-1.70;99.90;;;;;;7400227;19;20433;-80
2021/11/29 01:50:27;;;;;;;7.37;5.53;;;-1.70;99.90;;;;;;7405319;19;20483;-81
2021/11/29 01:52:53;;;;;;;7.30;5.68;;;-1.60;99.90;;;;;;7405936;19;20745;-80
2021/11/29 01:55:19;;;;;;;6.97;5.80;;;-1.60;99.90;;;;;;7404172;19;20311;-81
2021/11/29 01:57:45;;;;;;;6.40;5.80;;;-1.50;99.90;;;;;;7392250;19;20309;-80
2021/11/29 02:00:17;;;;;;;7.22;6.55;;;-1.50;99.90;;;;;;7390059;19;20707;-79
2021/11/29 02:02:43;;;;;;;7.07;6.38;;;-1.50;99.90;;;;;;7390696;19;20301;-79
2021/11/29 02:05:08;;;;;;;6.93;6.07;;;-1.50;99.90;;;;;;7389220;19;20388;-78
2021/11/29 02:07:34;;;;;;;7.88;6.85;;;-1.50;99.90;;;;;;7391517;19;20365;-81
2021/11/29 02:10:00;;;;;;;8.20;7.43;;;-1.50;99.90;;;;;;7395517;19;20316;-81
2021/11/29 02:12:25;;;;;;;6.97;6.27;;;-1.40;99.90;;;;;;7397246;19;20784;-81
2021/11/29 02:14:51;;;;;;;7.00;6.30;;;-1.40;99.90;;;;;;7389663;19;20348;-80
2021/11/29 02:17:17;;;;;;;8.57;7.10;;;-1.40;99.90;;;;;;7394392;19;20302;-79
2021/11/29 02:19:44;;;;;;;6.80;6.20;;;-1.40;99.90;;;;;;7391169;19;20344;-80
2021/11/29 02:22:10;;;;;;;6.97;6.38;;;-1.20;99.90;;;;;;7399386;19;20332;-79
2021/11/29 02:24:36;;;;;;;8.10;6.60;;;-1.30;99.90;;;;;;7401062;19;20308;-81
2021/11/29 02:27:03;;;;;;;7.90;6.85;;;-1.30;99.90;;;;;;7394921;19;20324;-79
2021/11/29 02:29:29;;;;;;;7.87;7.07;;;-1.20;99.90;;;;;;7397979;19;20327;-87
2021/11/29 02:31:55;;;;;;;7.97;7.17;;;-1.20;99.90;;;;;;7419627;19;20313;-85
2021/11/29 02:34:22;;;;;;;8.17;7.37;;;-1.20;99.90;;;;;;7409807;19;20352;-83
2021/11/29 02:36:51;;;;;;;7.38;6.65;;;-1.20;99.90;;;;;;7404951;19;20345;-80
2021/11/29 02:39:17;;;;;;;9.70;8.40;;;-1.10;99.90;;;;;;7408100;19;21236;-82
2021/11/29 02:41:43;;;;;;;7.63;6.93;;;-1.20;99.90;;;;;;7405639;19;20367;-82
2021/11/29 02:44:09;;;;;;;8.73;7.85;;;-1.20;99.90;;;;;;7408912;19;20292;-85
2021/11/29 02:46:35;;;;;;;8.03;7.23;;;-1.10;99.90;;;;;;7417010;19;20345;-83
2021/11/29 02:49:03;;;;;;;7.78;6.70;;;-1.20;99.90;;;;;;7413158;19;20423;-84
2021/11/29 02:51:34;;;;;;;6.53;6.03;;;-1.10;99.90;;;;;;7417417;19;20316;-82
2021/11/29 02:54:16;;;;;;;7.68;6.97;;;-1.10;99.90;;;;;;7408926;19;20301;-83
2021/11/29 02:56:45;;;;;;;9.10;8.13;;;-1.10;99.90;;;;;;7305895;19;2006942;-83
2021/11/29 02:59:27;;;;;;;11.43;8.70;;;-1.10;99.90;;;;;;7403381;19;20816;-80
2021/11/29 03:01:58;;;;;;;7.63;6.63;;;-1.10;99.90;;;;;;7409315;19;20297;-82
2021/11/29 03:04:25;;;;;;;10.32;8.88;;;-1.20;99.90;;;;;;7406966;19;20359;-83
2021/11/29 03:06:51;;;;;;;8.10;7.30;;;-1.20;99.90;;;;;;7391687;19;20988;-83
2021/11/29 03:09:18;;;;;;;9.25;8.23;;;-1.20;99.90;;;;;;7404994;19;20304;-85
2021/11/29 03:11:45;;;;;;;8.23;7.43;;;-1.20;99.90;;;;;;7406218;19;20341;-83
2021/11/29 03:14:21;;;;;;;8.38;7.57;;;-1.10;99.90;;;;;;7400191;19;20305;-83
2021/11/29 03:16:53;;;;;;;12.48;8.98;;;-1.10;99.90;;;;;;7402363;19;20340;-82
2021/11/29 03:19:18;;;;;;;8.75;7.85;;;-1.00;99.90;;;;;;7404170;19;20291;-82
2021/11/29 03:22:07;;;;;;;10.00;8.80;;;-1.10;99.90;;;;;;7302864;19;2004412;-84
2021/11/29 03:24:46;;;;;;;8.65;7.85;;;-1.10;99.90;;;;;;7410008;19;20332;-85
2021/11/29 03:28:11;;;;;;;9.35;8.20;;;-1.10;99.90;;;;;;7371403;19;20312;-84
2021/11/29 03:30:38;;;;;;;11.77;8.82;;;-1.10;99.90;;;;;;7305311;19;2004560;-83
2021/11/29 03:33:04;;;;;;;9.27;8.15;;;-1.10;99.90;;;;;;7366230;19;20344;-83
2021/11/29 03:35:32;;;;;;;9.07;8.18;;;-1.10;99.90;;;;;;7397887;19;20313;-82
2021/11/29 03:38:08;;;;;;;12.02;8.45;;;-1.10;99.90;;;;;;7415688;19;20329;-82
2021/11/29 03:40:57;;;;;;;9.30;7.95;;;-1.10;99.90;;;;;;7403196;19;20342;-80
2021/11/29 03:43:23;;;;;;;11.03;8.73;;;-1.00;99.90;;;;;;7314424;19;2004408;-82
2021/11/29 03:45:49;;;;;;;11.82;8.80;;;-1.00;99.90;;;;;;7419097;19;20466;-83
2021/11/29 03:48:16;;;;;;;9.35;7.90;;;-1.00;99.90;;;;;;7403724;19;20381;-84
2021/11/29 03:50:43;;;;;;;8.77;7.88;;;-1.00;99.90;;;;;;7410362;19;20339;-82
2021/11/29 03:53:18;;;;;;;8.83;7.93;;;-0.80;99.90;;;;;;7368830;19;20347;-82
2021/11/29 03:56:06;;;;;;;8.23;7.43;;;-0.90;99.90;;;;;;7270141;19;2004488;-83
2021/11/29 03:58:31;;;;;;;9.70;8.40;;;-0.90;99.90;;;;;;7395225;19;20364;-82
2021/11/29 04:01:02;;;;;;;9.38;7.65;;;-0.80;99.90;;;;;;7415025;19;20353;-84
2021/11/29 04:03:32;;;;;;;8.85;7.95;;;-0.80;99.90;;;;;;7413486;19;20305;-80
2021/11/29 04:06:35;;;;;;;11.27;9.27;;;-0.70;99.90;;;;;;7411831;19;20308;-82
2021/11/29 04:09:35;;;;;;;8.80;7.93;;;-0.70;99.90;;;;;;7288393;19;2004429;-85
2021/11/29 04:12:02;;;;;;;8.90;7.47;;;-0.80;99.90;;;;;;7423495;19;20340;-81
2021/11/29 04:14:31;;;;;;;8.45;7.55;;;-0.70;99.90;;;;;;7423407;19;20868;-83
2021/11/29 04:16:56;;;;;;;9.63;8.63;;;-0.70;99.90;;;;;;7417009;19;20323;-82
2021/11/29 04:19:23;;;;;;;9.98;8.13;;;-0.70;99.90;;;;;;7397980;19;20315;-83
2021/11/29 04:22:07;;;;;;;9.27;8.32;;;-0.70;99.90;;;;;;7416825;19;20300;-84
2021/11/29 04:24:40;;;;;;;9.98;8.13;;;-0.70;99.90;;;;;;7310009;19;2004626;-80
2021/11/29 04:27:09;;;;;;;8.57;7.57;;;-0.70;99.90;;;;;;7412114;19;20352;-84
2021/11/29 04:29:42;;;;;;;9.52;8.60;;;-0.50;99.90;;;;;;7385801;19;20312;-81
2021/11/29 04:32:08;;;;;;;8.20;7.23;;;-0.60;99.90;;;;;;7257612;19;2004432;-81
2021/11/29 04:34:34;;;;;;;8.40;6.75;;;-0.50;99.90;;;;;;7392871;19;20400;-82
2021/11/29 04:37:03;;;;;;;8.83;7.70;;;-0.50;99.90;;;;;;7415133;19;20348;-83
2021/11/29 04:39:30;;;;;;;10.20;7.75;;;-0.50;99.90;;;;;;7358477;19;20339;-81
2021/11/29 04:42:05;;;;;;;8.65;7.75;;;-0.40;99.90;;;;;;7415097;19;20317;-82
2021/11/29 04:44:40;;;;;;;10.65;8.27;;;-0.40;99.90;;;;;;7365624;19;20329;-80
2021/11/29 04:47:37;;;;;;;8.90;8.07;;;-0.40;99.90;;;;;;7390972;19;20329;-80
2021/11/29 04:51:03;;;;;;;10.77;8.93;;;-0.40;99.90;;;;;;7258759;19;2004414;-80
2021/11/29 04:54:09;;;;;;;9.23;8.07;;;-0.40;99.90;;;;;;7310378;19;2004417;-82
2021/11/29 04:56:57;;;;;;;9.23;8.32;;;-0.40;99.90;;;;;;7416607;19;20400;-83
2021/11/29 04:59:40;;;;;;;7.13;6.43;;;-0.50;99.90;;;;;;7294462;19;2004429;-82
2021/11/29 05:02:29;;;;;;;8.73;7.82;;;-0.40;99.90;;;;;;7398164;19;20340;-82
2021/11/29 05:05:21;;;;;;;7.45;6.70;;;-0.40;99.90;;;;;;7410101;19;20305;-82
2021/11/29 05:07:48;;;;;;;9.18;7.70;;;-0.20;99.90;;;;;;7418818;19;20335;-82
2021/11/29 05:10:16;;;;;;;9.13;7.60;;;-0.30;99.90;;;;;;7362643;19;20320;-84
2021/11/29 05:13:00;;;;;;;10.20;9.07;;;-0.20;99.90;;;;;;7378435;19;20349;-79
2021/11/29 05:15:35;;;;;;;8.20;7.40;;;-0.30;99.90;;;;;;7314381;19;20341;-81
2021/11/29 05:18:18;;;;;;;9.00;7.60;;;-0.20;99.90;;;;;;7345967;19;20327;-82
2021/11/29 05:21:38;;;;;;;7.40;6.70;;;-0.30;99.90;;;;;;7314839;19;2004298;-81
2021/11/29 05:24:34;;;;;;;8.98;7.90;;;-0.20;99.90;;;;;;7394447;19;20657;-86
2021/11/29 05:27:26;;;;;;;7.97;7.20;;;-0.20;99.90;;;;;;7306011;19;2004281;-84
2021/11/29 05:29:54;;;;;;;7.90;6.95;;;-0.10;99.90;;;;;;7418364;19;20352;-81
2021/11/29 05:32:31;;;;;;;7.57;6.80;;;-0.10;99.90;;;;;;7394567;19;20381;-84
2021/11/29 05:35:32;;;;;;;9.57;7.77;;;-0.10;99.90;;;;;;7307730;19;2004476;-80
2021/11/29 05:37:59;;;;;;;9.00;8.10;;;-0.10;99.90;;;;;;7410700;19;20312;-82
2021/11/29 05:40:48;;;;;;;8.98;7.90;;;-0.10;99.90;;;;;;7400494;19;20309;-81
2021/11/29 05:43:37;;;;;;;8.67;7.20;;;0.00;99.90;;;;;;7306809;19;2004373;-82
2021/11/29 05:46:04;;;;;;;9.50;7.57;;;0.00;99.90;;;;;;7354535;19;20340;-82
2021/11/29 05:48:30;;;;;;;10.53;9.40;;;-0.10;99.90;;;;;;7400447;19;20360;-83
2021/11/29 05:50:58;;;;;;;11.05;8.73;;;0.00;99.90;;;;;;7412263;19;20844;-81
2021/11/29 05:53:33;;;;;;;11.35;8.85;;;0.00;99.90;;;;;;7412342;19;20304;-81
2021/11/29 05:56:04;;;;;;;10.30;8.93;;;0.00;99.90;;;;;;7411800;19;20331;-82
2021/11/29 05:58:58;;;;;;;10.43;8.98;;;0.00;99.90;;;;;;7298962;19;2004457;-81
2021/11/29 06:01:26;;;;;;;11.13;9.23;;;0.00;99.90;;;;;;7413389;19;20333;-82
2021/11/29 06:03:52;;;;;;;10.93;9.30;;;-0.10;99.90;;;;;;7371062;19;20325;-83
2021/11/29 06:06:46;;;;;;;11.05;9.30;;;-0.10;99.90;;;;;;7396217;19;20321;-83
2021/11/29 06:09:34;;;;;;;9.65;7.80;;;-0.10;99.90;;;;;;7307495;19;2004408;-82
2021/11/29 06:12:23;;;;;;;12.18;9.18;;;-0.10;99.90;;;;;;7278757;19;2004428;-81
2021/11/29 06:14:53;;;;;;;11.38;9.68;;;-0.10;99.90;;;;;;7358972;19;20335;-82
2021/11/29 06:17:42;;;;;;;11.38;8.75;;;-0.10;99.90;;;;;;7384841;19;20328;-82
2021/11/29 06:20:24;;;;;;;11.90;10.50;;;-0.10;99.90;;;;;;7257728;19;2004386;-81
2021/11/29 06:22:52;;;;;;;12.52;10.40;;;0.00;99.90;;;;;;7355642;19;20324;-83
2021/11/29 06:25:28;;;;;;;13.23;9.60;;;-0.10;99.90;;;;;;7411774;19;20328;-82
2021/11/29 06:27:56;;;;;;;11.60;9.85;;;0.00;99.90;;;;;;7412087;19;20335;-82
2021/11/29 06:30:23;;;;;;;11.30;8.35;;;0.00;99.90;;;;;;7263206;19;2004456;-82
2021/11/29 06:32:53;;;;;;;10.48;8.95;;;0.00;99.90;;;;;;7413052;19;20345;-80
2021/11/29 06:35:20;;;;;;;11.83;10.63;;;0.00;99.90;;;;;;7405974;19;20388;-82
2021/11/29 06:37:47;;;;;;;11.18;10.07;;;0.00;99.90;;;;;;7400661;19;20300;-81
2021/11/29 06:40:14;;;;;;;10.70;9.45;;;0.10;99.90;;;;;;7407603;19;20312;-79
2021/11/29 06:42:43;;;;;;;12.98;11.00;;;0.10;99.90;;;;;;7409506;19;20345;-81
2021/11/29 06:45:09;;;;;;;12.80;10.88;;;0.10;99.90;;;;;;7417225;19;20307;-82
2021/11/29 06:47:41;;;;;;;14.02;11.02;;;0.20;99.90;;;;;;7412608;19;20333;-82
2021/11/29 06:50:11;;;;;;;12.90;11.05;;;0.20;99.90;;;;;;7411972;19;20354;-83
2021/11/29 06:52:38;;;;;;;14.80;12.20;;;0.20;99.90;;;;;;7410570;19;20390;-82
2021/11/29 06:55:05;;;;;;;16.02;13.25;;;0.10;99.90;;;;;;7407625;19;20323;-81
2021/11/29 06:57:36;;;;;;;18.13;13.45;;;0.10;99.90;;;;;;7416673;19;20317;-81
2021/11/29 07:00:07;;;;;;;15.95;12.38;;;0.10;99.90;;;;;;7412227;19;20338;-82
2021/11/29 07:02:36;;;;;;;15.98;12.88;;;0.10;99.90;;;;;;7416970;19;20354;-83
2021/11/29 07:05:04;;;;;;;19.45;14.38;;;0.20;99.90;;;;;;7403906;19;20342;-82
2021/11/29 07:07:31;;;;;;;17.67;13.90;;;0.10;99.90;;;;;;7402592;19;20349;-82
2021/11/29 07:09:57;;;;;;;19.50;12.88;;;0.10;99.90;;;;;;7397999;19;20892;-81
2021/11/29 07:12:25;;;;;;;15.98;13.55;;;0.10;99.90;;;;;;7371879;19;20304;-80
2021/11/29 07:14:52;;;;;;;17.15;14.27;;;0.10;99.90;;;;;;7402485;19;20348;-82
2021/11/29 07:17:21;;;;;;;16.60;12.45;;;0.20;99.90;;;;;;7404392;19;20335;-80
2021/11/29 07:19:55;;;;;;;16.83;13.70;;;0.20;99.90;;;;;;7404089;19;20333;-80
2021/11/29 07:22:21;;;;;;;18.67;13.98;;;0.20;99.90;;;;;;7406166;19;20372;-80
2021/11/29 07:24:50;;;;;;;17.92;13.98;;;0.30;99.90;;;;;;7404919;19;20316;-82
2021/11/29 07:27:17;;;;;;;18.95;14.05;;;0.20;99.90;;;;;;7408763;19;20309;-81
2021/11/29 07:29:53;;;;;;;17.10;14.23;;;0.30;99.90;;;;;;7407187;19;20297;-83
2021/11/29 07:32:20;;;;;;;18.67;15.32;;;0.30;99.90;;;;;;7301265;19;2004597;-82
2021/11/29 07:34:46;;;;;;;19.42;14.75;;;0.50;99.90;;;;;;7386219;19;20332;-85
2021/11/29 07:37:15;;;;;;;22.30;15.17;;;0.30;99.90;;;;;;7400594;19;20402;-81
2021/11/29 07:40:04;;;;;;;17.13;14.02;;;0.30;99.90;;;;;;7409298;19;20369;-81
2021/11/29 07:42:51;;;;;;;23.40;16.80;;;0.50;99.90;;;;;;7201783;19;2004568;-80
2021/11/29 07:45:27;;;;;;;21.42;15.00;;;0.20;99.90;;;;;;7305098;19;2004456;-81
2021/11/29 07:47:53;;;;;;;19.42;14.98;;;0.40;99.90;;;;;;7404009;19;20322;-82
2021/11/29 07:50:20;;;;;;;16.40;14.40;;;0.50;99.90;;;;;;7404035;19;20297;-85
2021/11/29 07:52:53;;;;;;;20.73;15.27;;;0.50;99.90;;;;;;7404720;19;20395;-85
2021/11/29 07:55:23;;;;;;;19.13;15.25;;;0.50;99.90;;;;;;7406441;19;20337;-81
2021/11/29 07:57:49;;;;;;;22.83;17.55;;;0.50;99.90;;;;;;7388721;19;20313;-82
2021/11/29 08:00:23;;;;;;;19.90;15.63;;;0.60;99.90;;;;;;7380903;19;20297;-82
2021/11/29 08:03:10;;;;;;;18.10;15.57;;;0.50;99.90;;;;;;7395959;19;20316;-80
2021/11/29 08:05:37;;;;;;;24.02;15.23;;;0.50;99.90;;;;;;7287190;19;2004411;-79
2021/11/29 08:08:09;;;;;;;16.90;13.63;;;0.60;99.90;;;;;;7387082;19;20417;-82
2021/11/29 08:10:36;;;;;;;20.45;14.90;;;0.60;99.90;;;;;;7391701;19;20315;-80
2021/11/29 08:13:26;;;;;;;21.75;14.80;;;0.60;99.90;;;;;;7385381;19;20312;-80
2021/11/29 08:15:52;;;;;;;20.35;16.17;;;0.60;99.90;;;;;;7395518;19;20412;-81
2021/11/29 08:18:18;;;;;;;18.27;14.82;;;0.70;99.90;;;;;;7393123;19;20796;-81
2021/11/29 08:20:44;;;;;;;20.20;15.07;;;0.70;99.90;;;;;;7389624;19;20313;-82
2021/11/29 08:23:11;;;;;;;19.75;14.32;;;0.90;99.90;;;;;;7385036;19;20373;-81
2021/11/29 08:25:41;;;;;;;20.02;15.20;;;0.70;99.90;;;;;;7391254;19;20312;-80
2021/11/29 08:28:10;;;;;;;19.25;15.88;;;0.90;99.90;;;;;;7393536;19;20321;-79
2021/11/29 08:30:37;;;;;;;17.50;14.70;;;0.70;99.90;;;;;;7395769;19;20323;-82
2021/11/29 08:33:02;;;;;;;25.00;19.73;;;0.90;99.90;;;;;;7395746;19;20317;-81
2021/11/29 08:35:28;;;;;;;18.70;15.45;;;0.80;99.90;;;;;;7396216;19;20309;-80
2021/11/29 08:37:58;;;;;;;18.93;15.27;;;0.90;99.90;;;;;;7404574;19;20323;-80
2021/11/29 08:40:27;;;;;;;16.25;13.35;;;0.90;99.90;;;;;;7391689;19;20309;-80
2021/11/29 08:42:53;;;;;;;16.73;14.25;;;0.90;99.90;;;;;;7390148;19;20635;-79
2021/11/29 08:45:19;;;;;;;17.48;14.60;;;0.90;99.90;;;;;;7398063;19;20630;-80
2021/11/29 08:47:45;;;;;;;16.83;14.23;;;1.00;99.90;;;;;;7400875;19;20364;-82
2021/11/29 08:50:11;;;;;;;19.50;14.50;;;0.90;99.90;;;;;;7401675;19;20384;-80
2021/11/29 10:00:27;;;;;;;16.50;13.68;;;1.70;99.90;;;;;;7266078;19;20352;-80
2021/11/29 10:02:58;;;;;;;19.38;15.07;;;1.70;99.90;;;;;;7405813;19;20352;-79
2021/11/29 10:05:28;;;;;;;18.42;14.63;;;1.80;99.90;;;;;;7370517;19;20359;-78
2021/11/29 10:07:55;;;;;;;16.63;14.13;;;1.80;99.90;;;;;;7409369;19;20345;-79
2021/11/29 10:10:36;;;;;;;17.75;13.57;;;1.80;99.90;;;;;;7390407;19;20324;-78
2021/11/29 10:13:07;;;;;;;18.65;15.10;;;1.90;99.90;;;;;;7291537;19;2004366;-77
2021/11/29 10:15:37;;;;;;;18.38;14.25;;;1.90;99.90;;;;;;7369954;19;20338;-78
2021/11/29 10:18:29;;;;;;;21.02;15.23;;;1.90;99.90;;;;;;7391684;19;20361;-77
2021/11/29 10:21:06;;;;;;;19.23;14.30;;;2.00;99.90;;;;;;7281205;19;2004440;-78
2021/11/29 10:23:42;;;;;;;18.42;15.20;;;1.90;99.90;;;;;;7374202;19;20352;-77
2021/11/29 10:26:20;;;;;;;18.20;13.93;;;1.90;99.90;;;;;;7302663;19;2004431;-78
2021/11/29 10:29:20;;;;;;;19.10;15.10;;;1.90;99.90;;;;;;7259859;19;2004465;-79
2021/11/29 10:42:05;;;;;;;21.40;15.48;;;2.00;99.90;;;;;;7407763;19;20345;-80
2021/11/29 10:44:37;;;;;;;16.75;14.45;;;2.00;99.90;;;;;;7406930;19;20360;-81
2021/11/29 10:48:02;;;;;;;15.73;13.75;;;2.00;99.90;;;;;;7391150;19;20316;-82
2021/11/29 10:50:41;;;;;;;19.58;16.45;;;2.00;99.90;;;;;;7305450;19;2004445;-83
2021/11/29 10:53:09;;;;;;;19.85;14.65;;;2.00;99.90;;;;;;7395053;19;20388;-81
2021/11/29 10:56:01;;;;;;;17.70;14.40;;;2.10;99.90;;;;;;7405387;19;20292;-83
2021/11/29 10:58:28;;;;;;;18.25;14.13;;;2.00;99.90;;;;;;7389502;19;20344;-80
2021/11/29 11:00:55;;;;;;;20.33;15.23;;;2.00;99.90;;;;;;7390934;19;20324;-80
2021/11/29 11:03:21;;;;;;;20.35;15.77;;;1.90;99.90;;;;;;7373750;19;20336;-80
2021/11/29 11:06:01;;;;;;;21.27;15.47;;;1.90;99.90;;;;;;7393520;19;20356;-80
2021/11/29 11:08:34;;;;;;;20.88;15.40;;;1.90;99.90;;;;;;7394224;19;20332;-81
2021/11/29 11:11:05;;;;;;;19.88;14.60;;;2.00;99.90;;;;;;7397002;19;20304;-80
2021/11/29 11:14:01;;;;;;;15.90;13.27;;;2.00;99.90;;;;;;7383092;19;20316;-81
2021/11/29 11:17:22;;;;;;;16.23;12.90;;;2.00;99.90;;;;;;7398292;19;20316;-81
2021/11/29 11:20:03;;;;;;;16.73;13.53;;;2.00;99.90;;;;;;7149782;19;2004388;-80
2021/11/29 11:22:35;;;;;;;17.30;13.93;;;2.00;99.90;;;;;;7396914;19;20858;-80
2021/11/29 11:25:33;;;;;;;18.73;14.00;;;2.10;99.90;;;;;;7391114;19;20697;-82
2021/11/29 11:28:15;;;;;;;15.43;13.80;;;2.00;99.90;;;;;;7290038;19;2004513;-80
2021/11/29 11:30:42;;;;;;;16.00;13.15;;;2.00;99.90;;;;;;7291063;19;2004497;-80
2021/11/29 11:33:20;;;;;;;19.23;14.07;;;2.00;99.90;;;;;;7392219;19;20431;-82
2021/11/29 11:35:49;;;;;;;17.95;13.48;;;2.10;99.90;;;;;;7396277;19;20334;-81
2021/11/29 11:38:16;;;;;;;17.92;14.27;;;2.10;99.90;;;;;;7377615;19;20337;-79
2021/11/29 11:40:45;;;;;;;16.10;13.60;;;2.10;99.90;;;;;;7396796;19;20314;-80
2021/11/29 11:43:14;;;;;;;16.85;13.27;;;2.10;99.90;;;;;;7378422;19;20305;-84
2021/11/29 11:45:43;;;;;;;15.93;13.75;;;2.10;99.90;;;;;;7395966;19;20345;-83
2021/11/29 11:48:11;;;;;;;16.88;12.85;;;2.10;99.90;;;;;;7399573;19;20308;-82
2021/11/29 11:50:39;;;;;;;16.08;13.15;;;2.20;99.90;;;;;;7369494;19;20351;-84
2021/11/29 11:53:06;;;;;;;18.25;13.15;;;2.20;99.90;;;;;;7406747;19;21080;-81
2021/11/29 11:55:37;;;;;;;15.75;13.45;;;2.20;99.90;;;;;;7408763;19;20321;-81
2021/11/29 11:58:13;;;;;;;16.10;12.88;;;2.40;99.90;;;;;;7409820;19;20344;-84
2021/11/29 12:00:44;;;;;;;16.27;13.35;;;2.30;99.90;;;;;;7300126;19;2004459;-84
2021/11/29 12:03:23;;;;;;;14.93;12.32;;;2.30;99.90;;;;;;7403721;19;20315;-82
2021/11/29 12:06:13;;;;;;;15.13;13.03;;;2.30;99.90;;;;;;7404826;19;20300;-82
2021/11/29 12:08:58;;;;;;;16.25;12.27;;;2.30;99.90;;;;;;7300379;19;2004429;-82
2021/11/29 12:11:28;;;;;;;15.52;12.07;;;2.30;99.90;;;;;;7399910;19;20300;-82
2021/11/29 12:14:10;;;;;;;19.00;13.15;;;2.40;99.90;;;;;;7393692;19;20818;-81
2021/11/29 12:16:45;;;;;;;14.55;12.20;;;2.30;99.90;;;;;;7404974;19;20329;-83
2021/11/29 12:19:42;;;;;;;14.30;11.07;;;2.40;99.90;;;;;;7396221;19;20364;-81
2021/11/29 12:22:18;;;;;;;14.05;12.07;;;2.50;99.90;;;;;;7299970;19;2004429;-84
2021/11/29 12:24:46;;;;;;;14.23;11.63;;;2.50;99.90;;;;;;7400540;19;20320;-84
2021/11/29 12:27:13;;;;;;;17.23;10.88;;;2.40;99.90;;;;;;7410650;19;20321;-82
2021/11/29 12:29:39;;;;;;;14.63;12.07;;;2.40;99.90;;;;;;7404095;19;20353;-80
2021/11/29 12:32:09;;;;;;;13.18;11.55;;;2.40;99.90;;;;;;7404134;19;20343;-82
2021/11/29 12:34:56;;;;;;;15.73;12.05;;;2.40;99.90;;;;;;7405950;19;20354;-83
2021/11/29 12:37:36;;;;;;;13.48;11.23;;;2.40;99.90;;;;;;7287266;19;2009146;-83
2021/11/29 12:40:09;;;;;;;17.58;11.57;;;2.40;99.90;;;;;;7310063;19;2005422;-84
2021/11/29 12:42:35;;;;;;;14.85;11.35;;;2.40;99.90;;;;;;7292234;19;2004870;-82
2021/11/29 12:45:11;;;;;;;15.65;11.10;;;2.30;99.90;;;;;;7397753;19;20428;-83
2021/11/29 12:47:52;;;;;;;14.07;10.65;;;2.40;99.90;;;;;;7403137;19;20341;-82
2021/11/29 12:50:39;;;;;;;13.38;10.73;;;2.40;99.90;;;;;;7407696;19;20324;-79
2021/11/29 12:53:08;;;;;;;13.07;10.35;;;2.40;99.90;;;;;;7304155;19;2004638;-84
2021/11/29 12:55:36;;;;;;;12.73;10.97;;;2.40;99.90;;;;;;7407869;19;20353;-83
2021/11/29 12:58:13;;;;;;;12.82;11.32;;;2.40;99.90;;;;;;7404428;19;20424;-83
2021/11/29 13:00:47;;;;;;;12.90;11.15;;;2.40;99.90;;;;;;7397137;19;20305;-82
2021/11/29 13:03:14;;;;;;;15.05;11.57;;;2.30;99.90;;;;;;7396971;19;20316;-83
2021/11/29 13:06:00;;;;;;;17.17;11.50;;;2.40;99.90;;;;;;7395612;19;20392;-82
2021/11/29 13:08:35;;;;;;;12.50;11.05;;;2.40;99.90;;;;;;7297533;19;2004548;-84
2021/11/29 13:11:18;;;;;;;13.98;11.07;;;2.40;99.90;;;;;;7402632;19;20334;-82
2021/11/29 13:14:23;;;;;;;14.55;11.13;;;2.40;99.90;;;;;;7296582;19;2005636;-82
2021/11/29 13:16:51;;;;;;;13.55;11.07;;;2.40;99.90;;;;;;7286062;19;2004589;-84
2021/11/29 13:19:22;;;;;;;12.82;10.93;;;2.40;99.90;;;;;;7404868;19;20316;-82
2021/11/29 13:21:52;;;;;;;13.48;10.55;;;2.40;99.90;;;;;;7393496;19;20349;-81
2021/11/29 13:24:25;;;;;;;14.05;10.75;;;2.50;99.90;;;;;;7407137;19;20343;-83
2021/11/29 13:27:16;;;;;;;14.02;11.52;;;2.50;99.90;;;;;;7394365;19;20309;-83
2021/11/29 13:29:48;;;;;;;12.82;10.90;;;2.50;99.90;;;;;;7406845;19;20341;-81
2021/11/29 13:32:20;;;;;;;12.77;10.30;;;2.60;99.90;;;;;;7404496;19;20317;-83
2021/11/29 13:35:03;;;;;;;13.13;9.98;;;2.50;99.90;;;;;;7403673;19;20364;-84
2021/11/29 13:37:32;;;;;;;13.98;10.65;;;2.50;99.90;;;;;;7391494;19;20345;-84
2021/11/29 13:40:20;;;;;;;12.05;10.27;;;2.60;99.90;;;;;;7407339;19;20325;-81
2021/11/29 13:42:54;;;;;;;12.48;10.73;;;2.60;99.90;;;;;;7410948;19;20323;-80
2021/11/29 13:45:39;;;;;;;11.90;10.30;;;2.60;99.90;;;;;;7312799;19;2004412;-80
2021/11/29 13:48:09;;;;;;;12.30;10.43;;;2.60;99.90;;;;;;7395355;19;20320;-83
2021/11/29 13:50:58;;;;;;;15.90;11.00;;;2.50;99.90;;;;;;7385016;19;20309;-83
2021/11/29 13:53:42;;;;;;;11.35;9.55;;;2.20;99.90;;;;;;7325194;19;20421;-81
2021/11/29 13:56:10;;;;;;;10.88;9.13;;;2.20;99.90;;;;;;7287287;19;2006280;-84
2021/11/29 13:58:36;;;;;;;11.13;9.75;;;2.10;99.90;;;;;;7394431;19;20336;-83
2021/11/29 14:01:10;;;;;;;10.70;9.35;;;2.00;99.90;;;;;;7394630;19;20321;-83
2021/11/29 14:03:46;;;;;;;9.18;8.27;;;2.10;99.90;;;;;;7402779;19;20328;-82
2021/11/29 14:06:16;;;;;;;11.18;9.13;;;2.20;99.90;;;;;;7398228;19;20320;-83
2021/11/29 14:08:51;;;;;;;11.20;9.25;;;2.10;99.90;;;;;;7379359;19;20781;-86
2021/11/29 14:11:20;;;;;;;10.73;8.80;;;2.00;99.90;;;;;;7397701;19;20336;-83
2021/11/29 14:13:56;;;;;;;9.32;7.75;;;2.00;99.90;;;;;;7398095;19;20362;-83
2021/11/29 14:16:49;;;;;;;9.57;8.50;;;2.00;99.90;;;;;;7291578;19;2026279;-82
2021/11/29 14:19:16;;;;;;;8.60;7.70;;;2.10;99.90;;;;;;7297121;19;2004405;-82
2021/11/29 14:21:44;;;;;;;9.55;7.95;;;2.10;99.90;;;;;;7391314;19;20348;-81
2021/11/29 14:24:11;;;;;;;9.15;8.00;;;2.00;99.90;;;;;;7388721;19;20659;-81
2021/11/29 14:27:01;;;;;;;10.07;8.57;;;2.00;99.90;;;;;;7395180;19;20796;-84